createdAt,value
2023-05-08T00:04:01.552Z,19.54
2023-05-08T00:09:03.273Z,19.33
2023-05-08T00:14:05.108Z,18.82
2023-05-08T00:19:07.460Z,18.60
2023-05-08T00:24:09.091Z,18.48
2023-05-08T00:29:13.501Z,19.18
2023-05-08T00:34:17.519Z,19.48
2023-05-08T00:39:19.162Z,19.12
2023-05-08T00:44:20.821Z,19.33
2023-05-08T00:49:22.511Z,19.45
2023-05-08T00:54:26.697Z,19.69
2023-05-08T00:59:30.426Z,19.52
2023-05-08T01:04:34.014Z,18.97
2023-05-08T01:09:35.618Z,18.81
2023-05-08T01:15:05.608Z,18.19
2023-05-08T01:20:26.556Z,18.10
2023-05-08T01:25:34.999Z,18.30
2023-05-08T01:31:22.402Z,18.14
2023-05-08T01:36:33.944Z,18.14
2023-05-08T01:41:38.500Z,18.07
2023-05-08T01:46:40.392Z,18.68
2023-05-08T01:51:45.966Z,18.49
2023-05-08T01:56:48.856Z,18.45
2023-05-08T02:01:54.270Z,17.74
2023-05-08T02:07:00.288Z,18.53
2023-05-08T02:12:03.404Z,17.70
2023-05-08T02:17:06.410Z,17.83
2023-05-08T02:22:09.523Z,18.05
2023-05-08T02:27:12.356Z,18.41
2023-05-08T02:32:16.770Z,18.30
2023-05-08T02:37:20.741Z,18.14
2023-05-08T02:42:22.397Z,18.63
2023-05-08T02:47:34.427Z,18.24
2023-05-08T02:52:44.390Z,17.49
2023-05-08T02:58:14.724Z,17.75
2023-05-08T03:03:24.425Z,18.54
2023-05-08T03:08:34.078Z,18.51
2023-05-08T03:13:39.139Z,18.51
2023-05-08T03:18:53.682Z,18.28
2023-05-08T03:23:58.225Z,18.28
2023-05-08T03:29:00.393Z,18.39
2023-05-08T03:34:08.388Z,18.60
2023-05-08T03:39:10.237Z,17.92
2023-05-08T03:44:12.165Z,17.72
2023-05-08T03:49:14.982Z,18.04
2023-05-08T03:54:16.745Z,17.67
2023-05-08T03:59:34.788Z,18.28
2023-05-08T04:04:41.282Z,18.49
2023-05-08T04:09:59.379Z,17.95
2023-05-08T04:15:23.200Z,17.90
2023-05-08T04:20:27.512Z,18.42
2023-05-08T04:25:32.451Z,18.43
2023-05-08T04:30:35.007Z,18.42
2023-05-08T04:35:36.990Z,18.32
2023-05-08T04:40:38.966Z,17.71
2023-05-08T04:45:41.497Z,17.88
2023-05-08T04:50:43.407Z,18.00
2023-05-08T04:55:45.286Z,17.64
2023-05-08T05:00:48.779Z,17.58
2023-05-08T05:05:59.272Z,17.41
2023-05-08T05:11:01.139Z,17.98
2023-05-08T05:16:03.460Z,17.77
2023-05-08T05:21:05.313Z,17.60
2023-05-08T05:26:07.606Z,18.47
2023-05-08T05:31:09.986Z,18.26
2023-05-08T05:36:11.766Z,19.34
2023-05-08T05:41:13.773Z,17.80
2023-05-08T05:46:15.680Z,18.57
2023-05-08T05:51:17.816Z,19.19
2023-05-08T05:56:19.614Z,18.58
2023-05-08T06:01:21.293Z,19.28
2023-05-08T06:06:23.061Z,18.38
2023-05-08T06:11:24.729Z,19.01
2023-05-08T06:16:26.569Z,19.07
2023-05-08T06:21:28.662Z,18.59
2023-05-08T06:26:30.639Z,18.86
2023-05-08T06:31:32.432Z,19.09
2023-05-08T06:36:34.130Z,18.71
2023-05-08T06:41:35.739Z,18.93
2023-05-08T06:46:37.359Z,18.88
2023-05-08T06:51:46.851Z,19.11
2023-05-08T06:56:48.408Z,19.34
2023-05-08T07:01:50.888Z,19.61
2023-05-08T07:06:52.582Z,20.31
2023-05-08T07:11:57.198Z,20.26
2023-05-08T07:17:01.057Z,20.27
2023-05-08T07:22:02.760Z,20.80
2023-05-08T07:27:04.341Z,20.72
2023-05-08T07:32:08.136Z,20.77
2023-05-08T07:37:10.192Z,20.68
2023-05-08T07:42:11.860Z,21.13
2023-05-08T07:47:13.375Z,21.66
2023-05-08T07:52:17.253Z,20.96
2023-05-08T07:57:18.837Z,21.82
2023-05-08T08:02:20.607Z,22.41
2023-05-08T08:07:22.249Z,21.75
2023-05-08T08:12:23.894Z,21.93
2023-05-08T08:17:28.325Z,22.41
2023-05-08T08:22:30.380Z,22.24
2023-05-08T08:27:32.273Z,22.39
2023-05-08T08:32:36.884Z,23.91
2023-05-08T08:37:39.112Z,23.70
2023-05-08T08:42:41.027Z,22.78
2023-05-08T08:47:45.400Z,23.98
2023-05-08T08:53:20.166Z,23.47
2023-05-08T08:58:25.573Z,24.32
2023-05-08T09:03:27.758Z,23.58
2023-05-08T09:08:30.011Z,24.29
2023-05-08T09:13:31.823Z,23.11
2023-05-08T09:18:36.231Z,25.30
2023-05-08T09:23:54.277Z,25.53
2023-05-08T09:29:07.722Z,23.19
2023-05-08T09:34:11.245Z,24.40
2023-05-08T09:39:13.092Z,24.45
2023-05-08T09:44:14.808Z,26.08
2023-05-08T09:49:20.347Z,26.17
2023-05-08T09:54:22.061Z,25.95
2023-05-08T09:59:28.653Z,25.70
2023-05-08T10:04:35.183Z,25.66
2023-05-08T10:09:47.567Z,26.10
2023-05-08T10:14:52.172Z,26.20
2023-05-08T10:20:00.333Z,26.56
2023-05-08T10:25:03.464Z,26.75
2023-05-08T10:30:06.983Z,25.22
2023-05-08T10:35:11.197Z,26.45
2023-05-08T10:40:16.085Z,26.00
2023-05-08T10:45:18.853Z,26.48
2023-05-08T10:50:35.659Z,25.76
2023-05-08T10:55:38.909Z,25.08
2023-05-08T11:00:49.522Z,25.91
2023-05-08T11:05:52.500Z,26.04
2023-05-08T11:11:00.530Z,25.45
2023-05-08T11:16:03.310Z,24.07
2023-05-08T11:21:14.308Z,24.71
2023-05-08T11:26:16.586Z,25.71
2023-05-08T11:31:18.356Z,24.53
2023-05-08T11:36:22.457Z,25.97
2023-05-08T11:41:24.523Z,25.06
2023-05-08T11:46:41.801Z,25.19
2023-05-08T11:51:50.579Z,26.08
2023-05-08T11:56:56.957Z,25.15
2023-05-08T12:02:07.607Z,25.96
2023-05-08T12:07:10.530Z,25.46
2023-05-08T12:12:12.099Z,25.15
2023-05-08T12:17:17.654Z,25.40
2023-05-08T12:22:19.351Z,24.84
2023-05-08T12:27:20.996Z,25.75
2023-05-08T12:32:22.990Z,25.14
2023-05-08T12:37:27.586Z,25.75
2023-05-08T12:42:45.946Z,25.95
2023-05-08T12:47:52.056Z,26.00
2023-05-08T12:52:53.872Z,26.70
2023-05-08T12:58:15.221Z,25.40
2023-05-08T13:03:26.804Z,25.69
2023-05-08T13:08:36.571Z,26.13
2023-05-08T13:13:38.154Z,26.13
2023-05-08T13:18:39.816Z,25.32
2023-05-08T13:23:43.811Z,26.14
2023-05-08T13:28:46.430Z,26.35
2023-05-08T13:33:48.361Z,26.87
2023-05-08T13:38:51.626Z,24.78
2023-05-08T13:43:53.226Z,24.30
2023-05-08T13:48:54.729Z,24.01
2023-05-08T13:53:56.249Z,24.29
2023-05-08T13:58:57.804Z,24.33
2023-05-08T14:03:59.560Z,24.55
2023-05-08T14:09:01.436Z,24.04
2023-05-08T14:14:02.990Z,23.84
2023-05-08T14:19:04.565Z,24.20
2023-05-08T14:24:06.447Z,25.06
2023-05-08T14:29:08.060Z,26.00
2023-05-08T14:34:09.565Z,26.03
2023-05-08T14:39:11.083Z,25.94
2023-05-08T14:44:12.735Z,25.27
2023-05-08T14:49:19.487Z,24.75
2023-05-08T14:54:27.297Z,25.45
2023-05-08T14:59:28.926Z,25.20
2023-05-08T15:04:30.753Z,26.01
2023-05-08T15:09:32.469Z,25.78
2023-05-08T15:14:36.291Z,25.88
2023-05-08T15:19:37.977Z,26.37
2023-05-08T15:24:39.625Z,26.44
2023-05-08T15:29:41.219Z,26.33
2023-05-08T15:34:42.752Z,25.42
2023-05-08T15:39:44.352Z,25.49
2023-05-08T15:49:51.187Z,25.82
2023-05-08T15:54:52.927Z,25.33
2023-05-08T15:59:54.524Z,25.73
2023-05-08T16:04:56.103Z,26.00
2023-05-08T16:09:57.857Z,25.72
2023-05-08T16:14:59.433Z,25.69
2023-05-08T16:20:01.901Z,25.20
2023-05-08T16:25:03.761Z,25.80
2023-05-08T16:30:06.449Z,24.78
2023-05-08T16:35:08.550Z,24.97
2023-05-08T16:40:10.638Z,25.27
2023-05-08T16:45:12.904Z,25.17
2023-05-08T16:50:17.373Z,25.65
2023-05-08T16:55:19.094Z,25.28
2023-05-08T17:00:21.349Z,24.67
2023-05-08T17:05:23.161Z,24.39
2023-05-08T17:10:24.741Z,24.67
2023-05-08T17:15:26.258Z,24.31
2023-05-08T17:20:27.954Z,24.60
2023-05-08T17:25:29.529Z,24.24
2023-05-08T17:30:31.522Z,24.16
2023-05-08T17:35:34.316Z,24.61
2023-05-08T17:40:37.012Z,24.67
2023-05-08T17:45:39.213Z,24.27
2023-05-08T17:50:42.276Z,24.73
2023-05-08T17:55:43.803Z,24.34
2023-05-08T18:00:45.373Z,24.48
2023-05-08T18:05:46.988Z,24.36
2023-05-08T18:10:48.562Z,23.98
2023-05-08T18:15:50.193Z,23.99
2023-05-08T18:20:51.788Z,23.59
2023-05-08T18:25:53.298Z,23.38
2023-05-08T18:30:54.883Z,23.53
2023-05-08T18:35:56.727Z,23.61
2023-05-08T18:40:58.302Z,23.72
2023-05-08T18:46:00.684Z,23.03
2023-05-08T18:51:02.412Z,23.24
2023-05-08T18:56:04.796Z,23.35
2023-05-08T19:01:10.458Z,24.12
2023-05-08T19:06:13.583Z,24.14
2023-05-08T19:11:15.156Z,24.37
2023-05-08T19:16:16.712Z,23.94
2023-05-08T19:21:18.499Z,23.76
2023-05-08T19:26:20.154Z,23.79
2023-05-08T19:31:21.698Z,23.79
2023-05-08T19:36:23.256Z,23.35
2023-05-08T19:41:25.374Z,23.39
2023-05-08T19:46:26.912Z,23.03
2023-05-08T19:51:28.585Z,22.65
2023-05-08T19:56:30.122Z,23.03
2023-05-08T20:01:31.711Z,23.26
2023-05-08T20:06:33.282Z,23.29
2023-05-08T20:11:35.205Z,22.94
2023-05-08T20:16:36.902Z,23.34
2023-05-08T20:21:38.575Z,22.33
2023-05-08T20:26:40.114Z,22.41
2023-05-08T20:31:41.737Z,21.94
2023-05-08T20:36:45.017Z,22.05
2023-05-08T20:41:46.550Z,21.66
2023-05-08T20:46:48.144Z,22.12
2023-05-08T20:51:49.727Z,21.87
2023-05-08T20:56:51.245Z,21.61
2023-05-08T21:01:52.792Z,21.97
2023-05-08T21:06:54.325Z,21.95
2023-05-08T21:11:55.963Z,21.91
2023-05-08T21:16:57.696Z,22.29
2023-05-08T21:21:59.231Z,22.04
2023-05-08T21:27:00.917Z,22.27
2023-05-08T21:32:02.648Z,21.63
2023-05-08T21:37:04.231Z,22.03
2023-05-08T21:42:06.133Z,22.14
2023-05-08T21:47:10.927Z,22.29
2023-05-08T21:52:12.451Z,21.61
2023-05-08T21:57:13.955Z,22.04
2023-05-08T22:02:16.341Z,22.07
2023-05-08T22:07:19.149Z,21.87
2023-05-08T22:12:20.703Z,22.33
2023-05-08T22:17:22.240Z,22.46
2023-05-08T22:22:23.773Z,22.52
2023-05-08T22:27:27.701Z,22.41
2023-05-08T22:32:29.462Z,21.85
2023-05-08T22:37:31.008Z,22.10
2023-05-08T22:42:32.657Z,22.48
2023-05-08T22:47:34.691Z,22.27
2023-05-08T22:52:36.755Z,22.22
2023-05-08T22:57:38.375Z,22.25
2023-05-08T23:02:40.101Z,22.62
2023-05-08T23:07:41.719Z,22.36
2023-05-08T23:12:43.507Z,22.00
2023-05-08T23:17:45.327Z,22.04
2023-05-08T23:22:47.013Z,22.04
2023-05-08T23:27:48.612Z,21.87
2023-05-08T23:32:51.298Z,21.33
2023-05-08T23:37:52.926Z,22.02
2023-05-08T23:42:54.646Z,21.35
2023-05-08T23:47:56.196Z,21.97
2023-05-08T23:52:57.781Z,21.79
2023-05-08T23:57:59.304Z,21.61
